Time;durP1;ratioP1;P1;durP2;ratioP2;P2;SDS_P1;SDS_P2;PMS_P1;PMS_P2;Temp;Humidity;BMP_temperature;BMP_pressure;BME280_temperature;BME280_humidity;BME280_pressure;Samples;Min_cycle;Max_cycle;Signal;HPM_P1;HPM_P2
2022/04/02 00:00:42;;;;;;;;;;;;;;;;;;4988271;28;19936;-80
2022/04/02 00:03:09;;;;;;;;;;;;;;;;;;4981339;28;20389;-80
2022/04/02 00:05:36;;;;;;;;;;;;;;;;;;4979769;28;20331;-80
2022/04/02 00:08:04;;;;;;;;;;;;;;;;;;5000491;28;19929;-81
2022/04/02 00:10:31;;;;;;;;;;;;;;;;;;4997873;28;19984;-80
2022/04/02 00:12:58;;;;;;;;;;;;;;;;;;4986920;28;19922;-79
2022/04/02 00:15:25;;;;;;;;;;;;;;;;;;4999528;28;19922;-79
2022/04/02 00:17:53;;;;;;;;;;;;;;;;;;5002493;28;20334;-80
2022/04/02 00:20:20;;;;;;;;;;;;;;;;;;4982521;28;19929;-80
2022/04/02 00:25:33;;;;;;;;;;;;;;;;;;4981860;28;19937;-79
2022/04/02 00:28:01;;;;;;;;;;;;;;;;;;4983762;28;19922;-80
2022/04/02 00:30:28;;;;;;;;;;;;;;;;;;4983603;28;19972;-80
2022/04/02 00:32:55;;;;;;;;;;;;;;;;;;4994405;28;20282;-80
2022/04/02 00:35:23;;;;;;;;;;;;;;;;;;4996977;28;19972;-79
2022/04/02 00:37:50;;;;;;;;;;;;;;;;;;4998432;28;19922;-79
2022/04/02 00:40:17;;;;;;;;;;;;;;;;;;4997915;28;19922;-80
2022/04/02 00:42:45;;;;;;;;;;;;;;;;;;5004717;28;19925;-79
2022/04/02 00:45:12;;;;;;;;;;;;;;;;;;4985554;28;19929;-80
2022/04/02 00:47:39;;;;;;;;;;;;;;;;;;5001873;28;20390;-79
2022/04/02 00:50:07;;;;;;;;;;;;;;;;;;5005059;28;19926;-80
2022/04/02 00:52:34;;;;;;;;;;;;;;;;;;4981419;28;19922;-79
2022/04/02 00:55:01;;;;;;;;;;;;;;;;;;4999195;28;19926;-80
2022/04/02 00:57:29;;;;;;;;;;;;;;;;;;5005290;28;20358;-79
2022/04/02 00:59:56;;;;;;;;;;;;;;;;;;4989605;28;19980;-79
2022/04/02 01:02:23;;;;;;;;;;;;;;;;;;5002951;28;19929;-79
2022/04/02 01:04:51;;;;;;;;;;;;;;;;;;4999703;28;21201;-79
2022/04/02 01:07:18;;;;;;;;;;;;;;;;;;4986865;28;20000;-79
2022/04/02 01:09:46;;;;;;;;;;;;;;;;;;4986190;28;19977;-79
2022/04/02 01:12:13;;;;;;;;;;;;;;;;;;4977450;28;19949;-79
2022/04/02 01:14:42;;;;;;;;;;;;;;;;;;4991113;28;19926;-79
2022/04/02 01:17:22;;;;;;;;;;;;;;;;;;4997427;28;19922;-80
2022/04/02 01:19:49;;;;;;;;;;;;;;;;;;4996202;28;19921;-80
2022/04/02 01:22:24;;;;;;;;;;;;;;;;;;4993408;28;19972;-79
2022/04/02 01:24:53;;;;;;;;;;;;;;;;;;4981031;28;19922;-79
2022/04/02 01:27:21;;;;;;;;;;;;;;;;;;4996181;28;19928;-79
2022/04/02 01:29:55;;;;;;;;;;;;;;;;;;4984877;28;19921;-79
2022/04/02 01:32:22;;;;;;;;;;;;;;;;;;5005444;28;19922;-79
2022/04/02 01:35:00;;;;;;;;;;;;;;;;;;4981284;28;19930;-79
2022/04/02 01:37:27;;;;;;;;;;;;;;;;;;5000486;28;19925;-79
2022/04/02 01:39:59;;;;;;;;;;;;;;;;;;4981568;28;19926;-79
2022/04/02 01:42:37;;;;;;;;;;;;;;;;;;4986920;28;19921;-79
2022/04/02 01:45:08;;;;;;;;;;;;;;;;;;4955641;28;19968;-79
2022/04/02 01:47:42;;;;;;;;;;;;;;;;;;4985304;28;19922;-79
2022/04/02 01:50:13;;;;;;;;;;;;;;;;;;4981186;28;19922;-80
2022/04/02 01:52:45;;;;;;;;;;;;;;;;;;4978006;28;20275;-79
2022/04/02 01:55:16;;;;;;;;;;;;;;;;;;4980201;28;19922;-79
2022/04/02 01:57:48;;;;;;;;;;;;;;;;;;4976628;28;20374;-79
2022/04/02 02:00:22;;;;;;;;;;;;;;;;;;4976502;28;20507;-79
2022/04/02 02:02:50;;;;;;;;;;;;;;;;;;4986819;28;19925;-79
2022/04/02 02:05:18;;;;;;;;;;;;;;;;;;4979546;28;19925;-79
2022/04/02 02:07:47;;;;;;;;;;;;;;;;;;4981013;28;19976;-79
2022/04/02 02:10:15;;;;;;;;;;;;;;;;;;4987787;28;19921;-79
2022/04/02 02:12:57;;;;;;;;;;;;;;;;;;4981078;28;20289;-79
2022/04/02 02:15:32;;;;;;;;;;;;;;;;;;4982997;28;19922;-79
2022/04/02 02:18:02;;;;;;;;;;;;;;;;;;4980321;28;20428;-79
2022/04/02 02:20:30;;;;;;;;;;;;;;;;;;4984075;28;19936;-79
2022/04/02 02:22:58;;;;;;;;;;;;;;;;;;4979151;28;20259;-79
2022/04/02 02:25:26;;;;;;;;;;;;;;;;;;4983638;28;19929;-79
2022/04/02 02:27:53;;;;;;;;;;;;;;;;;;4984487;28;19944;-79
2022/04/02 02:30:23;;;;;;;;;;;;;;;;;;4989908;28;19928;-79
2022/04/02 02:35:49;;;;;;;;;;;;;;;;;;4988289;28;19969;-79
2022/04/02 02:36:00;;;;;;;;;;;;;;;;;;;;;
2022/04/02 02:42:35;;;;;;;;;;;;;;;;;;4981295;28;19952;-80
2022/04/02 02:45:27;;;;;;;;;;;;;;;;;;4978461;28;20012;-80
2022/04/02 02:47:59;;;;;;;;;;;;;;;;;;4979660;28;20338;-80
2022/04/02 02:50:42;;;;;;;;;;;;;;;;;;4983938;28;20024;-81
2022/04/02 02:53:14;;;;;;;;;;;;;;;;;;4979575;28;20350;-81
2022/04/02 02:55:44;;;;;;;;;;;;;;;;;;4986764;28;20408;-80
2022/04/02 02:58:11;;;;;;;;;;;;;;;;;;4979575;28;19929;-81
2022/04/02 03:00:41;;;;;;;;;;;;;;;;;;4979212;28;20392;-81
2022/04/02 03:03:16;;;;;;;;;;;;;;;;;;4963181;28;19926;-80
2022/04/02 03:05:46;;;;;;;;;;;;;;;;;;4964415;28;19921;-80
2022/04/02 03:08:16;;;;;;;;;;;;;;;;;;4980122;28;19933;-81
2022/04/02 03:11:02;;;;;;;;;;;;;;;;;;4989747;28;19922;-81
2022/04/02 03:13:32;;;;;;;;;;;;;;;;;;4983021;28;19968;-80
2022/04/02 03:16:05;;;;;;;;;;;;;;;;;;4978553;28;19926;-81
2022/04/02 03:18:36;;;;;;;;;;;;;;;;;;4979128;28;19968;-81
2022/04/02 03:21:07;;;;;;;;;;;;;;;;;;4982551;28;19922;-81
2022/04/02 03:23:35;;;;;;;;;;;;;;;;;;4985298;28;20471;-81
2022/04/02 03:26:02;;;;;;;;;;;;;;;;;;4982620;28;20454;-81
2022/04/02 03:28:35;;;;;;;;;;;;;;;;;;4978951;28;20472;-80
2022/04/02 03:31:03;;;;;;;;;;;;;;;;;;4983434;28;20377;-81
2022/04/02 03:33:32;;;;;;;;;;;;;;;;;;4986822;28;19929;-80
2022/04/02 03:36:02;;;;;;;;;;;;;;;;;;4986318;28;20401;-81
2022/04/02 03:38:30;;;;;;;;;;;;;;;;;;4982060;28;20001;-81
2022/04/02 03:41:02;;;;;;;;;;;;;;;;;;4986321;28;19928;-81
2022/04/02 03:43:29;;;;;;;;;;;;;;;;;;4966543;28;19929;-80
2022/04/02 03:47:08;;;;;;;;;;;;;;;;;;4978766;28;19944;-80
2022/04/02 03:48:45;;;;;;;;;;;;;;;;;;4983253;28;19965;-81
2022/04/02 03:51:12;;;;;;;;;;;;;;;;;;4981901;28;20385;-81
2022/04/02 03:53:46;;;;;;;;;;;;;;;;;;4989219;28;20437;-80
2022/04/02 03:56:14;;;;;;;;;;;;;;;;;;4980157;28;19922;-81
2022/04/02 03:58:49;;;;;;;;;;;;;;;;;;4983007;28;19965;-81
2022/04/02 04:01:17;;;;;;;;;;;;;;;;;;4988532;28;20382;-81
2022/04/02 04:03:46;;;;;;;;;;;;;;;;;;4977886;28;19950;-81
2022/04/02 04:06:18;;;;;;;;;;;;;;;;;;4976915;28;19928;-80
2022/04/02 04:08:47;;;;;;;;;;;;;;;;;;4980582;28;19928;-81
2022/04/02 04:11:16;;;;;;;;;;;;;;;;;;4978976;28;19976;-81
2022/04/02 04:13:49;;;;;;;;;;;;;;;;;;4962311;28;19922;-81
2022/04/02 04:16:16;;;;;;;;;;;;;;;;;;4979788;28;19929;-81
2022/04/02 04:18:45;;;;;;;;;;;;;;;;;;4989961;28;20430;-81
2022/04/02 04:21:14;;;;;;;;;;;;;;;;;;4977662;28;19926;-81
2022/04/02 04:23:42;;;;;;;;;;;;;;;;;;4983472;28;19926;-81
2022/04/02 04:26:12;;;;;;;;;;;;;;;;;;4977880;28;19929;-81
2022/04/02 04:28:43;;;;;;;;;;;;;;;;;;4982184;28;19945;-81
2022/04/02 04:31:17;;;;;;;;;;;;;;;;;;4979904;28;20432;-81
2022/04/02 04:33:49;;;;;;;;;;;;;;;;;;4973190;28;20478;-81
2022/04/02 04:36:18;;;;;;;;;;;;;;;;;;4966404;28;19929;-81
2022/04/02 04:38:46;;;;;;;;;;;;;;;;;;4984264;28;20019;-81
2022/04/02 04:41:20;;;;;;;;;;;;;;;;;;4963043;28;20379;-81
2022/04/02 04:43:52;;;;;;;;;;;;;;;;;;4972119;28;19929;-82
2022/04/02 04:46:23;;;;;;;;;;;;;;;;;;4984621;28;19953;-81
2022/04/02 04:48:54;;;;;;;;;;;;;;;;;;4977409;28;19922;-81
2022/04/02 04:51:23;;;;;;;;;;;;;;;;;;4982542;28;20768;-81
2022/04/02 04:53:51;;;;;;;;;;;;;;;;;;4978261;28;19968;-82
2022/04/02 04:56:19;;;;;;;;;;;;;;;;;;4978697;28;19953;-81
2022/04/02 04:58:46;;;;;;;;;;;;;;;;;;4974108;28;19981;-81
2022/04/02 05:01:17;;;;;;;;;;;;;;;;;;4984101;28;19957;-81
2022/04/02 05:03:44;;;;;;;;;;;;;;;;;;4984640;28;19922;-82
2022/04/02 05:06:16;;;;;;;;;;;;;;;;;;4986166;28;19973;-81
2022/04/02 05:08:48;;;;;;;;;;;;;;;;;;4988281;28;19930;-81
2022/04/02 05:11:16;;;;;;;;;;;;;;;;;;4962024;28;20008;-81
2022/04/02 05:13:50;;;;;;;;;;;;;;;;;;4961253;28;19922;-81
2022/04/02 05:16:21;;;;;;;;;;;;;;;;;;4978553;28;19930;-82
2022/04/02 05:18:49;;;;;;;;;;;;;;;;;;4976798;28;19921;-81
2022/04/02 05:21:19;;;;;;;;;;;;;;;;;;4984589;28;19928;-82
2022/04/02 05:23:46;;;;;;;;;;;;;;;;;;4970969;28;19956;-81
2022/04/02 05:26:14;;;;;;;;;;;;;;;;;;4976605;28;19926;-81
2022/04/02 05:28:43;;;;;;;;;;;;;;;;;;4984101;28;20407;-81
2022/04/02 05:31:11;;;;;;;;;;;;;;;;;;4989852;28;20347;-81
2022/04/02 05:33:38;;;;;;;;;;;;;;;;;;4980962;28;19925;-82
2022/04/02 05:36:07;;;;;;;;;;;;;;;;;;4979982;28;20382;-81
2022/04/02 05:38:34;;;;;;;;;;;;;;;;;;4968754;28;19921;-81
2022/04/02 05:41:02;;;;;;;;;;;;;;;;;;4985091;28;19921;-82
2022/04/02 05:43:29;;;;;;;;;;;;;;;;;;4984096;28;19930;-81
2022/04/02 05:45:57;;;;;;;;;;;;;;;;;;4983742;28;19922;-82
2022/04/02 05:48:24;;;;;;;;;;;;;;;;;;4991529;28;19968;-80
2022/04/02 05:50:51;;;;;;;;;;;;;;;;;;4988234;28;19934;-80
2022/04/02 05:53:19;;;;;;;;;;;;;;;;;;4970329;28;19930;-81
2022/04/02 05:55:46;;;;;;;;;;;;;;;;;;4986599;28;19964;-81
2022/04/02 05:58:13;;;;;;;;;;;;;;;;;;4983283;28;19972;-82
2022/04/02 06:00:41;;;;;;;;;;;;;;;;;;4985074;28;20454;-83
2022/04/02 06:03:08;;;;;;;;;;;;;;;;;;4972162;28;20341;-81
2022/04/02 06:05:35;;;;;;;;;;;;;;;;;;4979354;28;20248;-81
2022/04/02 06:08:02;;;;;;;;;;;;;;;;;;4984913;28;19969;-81
2022/04/02 06:10:30;;;;;;;;;;;;;;;;;;4989254;28;19921;-82
2022/04/02 06:12:57;;;;;;;;;;;;;;;;;;4985884;28;19922;-81
2022/04/02 06:15:24;;;;;;;;;;;;;;;;;;4980458;28;20001;-81
2022/04/02 06:17:52;;;;;;;;;;;;;;;;;;4980256;28;19926;-82
2022/04/02 06:20:19;;;;;;;;;;;;;;;;;;4979356;28;19929;-82
2022/04/02 06:22:46;;;;;;;;;;;;;;;;;;4984789;28;19926;-81
2022/04/02 06:25:13;;;;;;;;;;;;;;;;;;4984797;28;19921;-81
2022/04/02 06:27:41;;;;;;;;;;;;;;;;;;4965659;28;19930;-80
2022/04/02 06:30:09;;;;;;;;;;;;;;;;;;4992222;28;19926;-80
2022/04/02 06:32:36;;;;;;;;;;;;;;;;;;4979719;28;19922;-81
2022/04/02 06:35:03;;;;;;;;;;;;;;;;;;4987800;28;20390;-80
2022/04/02 06:37:31;;;;;;;;;;;;;;;;;;4968029;28;19944;-83
2022/04/02 06:40:01;;;;;;;;;;;;;;;;;;4980780;28;19922;-81
2022/04/02 06:42:28;;;;;;;;;;;;;;;;;;4981893;28;19925;-81
2022/04/02 06:44:56;;;;;;;;;;;;;;;;;;5004332;28;20346;-81
2022/04/02 06:47:23;;;;;;;;;;;;;;;;;;4996257;28;19954;-80
2022/04/02 06:49:50;;;;;;;;;;;;;;;;;;4994389;28;19972;-81
2022/04/02 06:52:17;;;;;;;;;;;;;;;;;;4997828;28;19933;-82
2022/04/02 06:54:45;;;;;;;;;;;;;;;;;;5001474;28;19921;-82
2022/04/02 06:57:12;;;;;;;;;;;;;;;;;;5007807;28;19921;-82
2022/04/02 06:59:41;;;;;;;;;;;;;;;;;;4989848;28;19922;-81
2022/04/02 07:02:08;;;;;;;;;;;;;;;;;;5003813;28;19937;-84
2022/04/02 07:04:35;;;;;;;;;;;;;;;;;;4977857;28;19922;-83
2022/04/02 07:07:03;;;;;;;;;;;;;;;;;;4997621;28;20304;-83
2022/04/02 07:09:30;;;;;;;;;;;;;;;;;;5003535;28;20282;-83
2022/04/02 07:11:57;;;;;;;;;;;;;;;;;;4995602;28;20317;-83
2022/04/02 07:14:24;;;;;;;;;;;;;;;;;;5000952;28;20330;-83
2022/04/02 07:16:52;;;;;;;;;;;;;;;;;;4983266;28;19930;-83
2022/04/02 07:19:19;;;;;;;;;;;;;;;;;;4981681;28;19945;-82
2022/04/02 07:21:46;;;;;;;;;;;;;;;;;;4996664;28;19929;-83
2022/04/02 07:24:14;;;;;;;;;;;;;;;;;;5002828;28;20409;-83
2022/04/02 07:26:42;;;;;;;;;;;;;;;;;;4995231;28;20290;-82
2022/04/02 07:29:09;;;;;;;;;;;;;;;;;;4970227;28;20378;-83
2022/04/02 07:31:39;;;;;;;;;;;;;;;;;;4987190;28;19933;-82
2022/04/02 07:34:07;;;;;;;;;;;;;;;;;;4996634;28;19945;-83
2022/04/02 07:36:34;;;;;;;;;;;;;;;;;;5003473;28;19922;-83
2022/04/02 07:39:01;;;;;;;;;;;;;;;;;;4999085;28;20313;-83
2022/04/02 07:41:29;;;;;;;;;;;;;;;;;;4977876;28;19937;-85
2022/04/02 07:43:59;;;;;;;;;;;;;;;;;;4980268;28;19951;-85
2022/04/02 07:46:27;;;;;;;;;;;;;;;;;;4972023;28;19973;-82
2022/04/02 07:48:54;;;;;;;;;;;;;;;;;;4976067;28;19976;-81
2022/04/02 07:51:30;;;;;;;;;;;;;;;;;;4973331;28;20016;-82
2022/04/02 07:53:58;;;;;;;;;;;;;;;;;;4977937;28;19984;-82
2022/04/02 07:56:25;;;;;;;;;;;;;;;;;;4981734;28;19922;-82
2022/04/02 07:58:52;;;;;;;;;;;;;;;;;;4973203;28;19934;-82
2022/04/02 08:01:19;;;;;;;;;;;;;;;;;;4986280;28;19968;-81
2022/04/02 08:03:48;;;;;;;;;;;;;;;;;;4980762;28;20016;-83
2022/04/02 08:06:17;;;;;;;;;;;;;;;;;;4972205;28;19922;-83
2022/04/02 08:08:47;;;;;;;;;;;;;;;;;;4977583;28;19997;-83
2022/04/02 08:11:18;;;;;;;;;;;;;;;;;;4977570;28;19926;-82
2022/04/02 08:13:47;;;;;;;;;;;;;;;;;;4966510;28;19929;-81
2022/04/02 08:16:15;;;;;;;;;;;;;;;;;;4977076;28;19988;-81
2022/04/02 08:18:43;;;;;;;;;;;;;;;;;;4988842;28;19922;-82
2022/04/02 08:21:18;;;;;;;;;;;;;;;;;;4974182;28;19922;-82
2022/04/02 08:23:45;;;;;;;;;;;;;;;;;;4979470;28;20387;-83
2022/04/02 08:26:14;;;;;;;;;;;;;;;;;;4976403;28;19921;-81
2022/04/02 08:28:43;;;;;;;;;;;;;;;;;;4978247;28;19965;-82
2022/04/02 08:31:10;;;;;;;;;;;;;;;;;;4979666;28;20655;-82
2022/04/02 08:33:38;;;;;;;;;;;;;;;;;;4978084;28;19933;-82
2022/04/02 08:36:05;;;;;;;;;;;;;;;;;;4972741;28;19926;-82
2022/04/02 08:38:32;;;;;;;;;;;;;;;;;;4972266;28;19973;-81
2022/04/02 08:40:59;;;;;;;;;;;;;;;;;;4978718;28;20009;-82
2022/04/02 08:43:27;;;;;;;;;;;;;;;;;;4979563;28;20358;-82
2022/04/02 08:45:54;;;;;;;;;;;;;;;;;;4985654;28;19956;-81
2022/04/02 08:48:22;;;;;;;;;;;;;;;;;;4980985;28;19995;-81
2022/04/02 08:50:49;;;;;;;;;;;;;;;;;;4979595;28;19934;-82
2022/04/02 08:53:16;;;;;;;;;;;;;;;;;;4984837;28;19929;-83
2022/04/02 08:55:44;;;;;;;;;;;;;;;;;;4983442;28;19922;-82
2022/04/02 08:58:11;;;;;;;;;;;;;;;;;;4981242;28;19922;-83
2022/04/02 09:00:38;;;;;;;;;;;;;;;;;;4982105;28;20403;-83
2022/04/02 09:03:06;;;;;;;;;;;;;;;;;;4975903;28;19925;-84
2022/04/02 09:05:34;;;;;;;;;;;;;;;;;;4973768;28;19969;-82
2022/04/02 09:08:01;;;;;;;;;;;;;;;;;;4987203;28;20283;-82
2022/04/02 09:10:28;;;;;;;;;;;;;;;;;;4975948;28;19936;-82
2022/04/02 09:12:55;;;;;;;;;;;;;;;;;;4982224;28;20008;-83
2022/04/02 09:15:23;;;;;;;;;;;;;;;;;;4980231;28;19922;-83
2022/04/02 09:17:50;;;;;;;;;;;;;;;;;;4980564;28;19926;-84
2022/04/02 09:20:19;;;;;;;;;;;;;;;;;;4986891;28;19925;-84
2022/04/02 09:22:46;;;;;;;;;;;;;;;;;;4976602;28;19946;-82
2022/04/02 09:25:14;;;;;;;;;;;;;;;;;;4986684;28;20378;-82
2022/04/02 09:27:41;;;;;;;;;;;;;;;;;;4978645;28;19926;-81
2022/04/02 09:30:09;;;;;;;;;;;;;;;;;;4976496;28;20441;-81
2022/04/02 09:32:36;;;;;;;;;;;;;;;;;;4976746;28;20270;-83
2022/04/02 09:35:03;;;;;;;;;;;;;;;;;;4982181;28;19928;-80
2022/04/02 09:37:30;;;;;;;;;;;;;;;;;;4979562;28;19988;-81
2022/04/02 09:39:58;;;;;;;;;;;;;;;;;;4986376;28;19926;-82
2022/04/02 09:42:26;;;;;;;;;;;;;;;;;;4980119;28;19922;-81
2022/04/02 09:44:54;;;;;;;;;;;;;;;;;;4980373;28;20330;-82
2022/04/02 09:47:21;;;;;;;;;;;;;;;;;;4986402;28;20366;-81
2022/04/02 09:49:48;;;;;;;;;;;;;;;;;;4981821;28;19921;-81
2022/04/02 09:52:16;;;;;;;;;;;;;;;;;;4965323;28;20338;-81
2022/04/02 09:54:43;;;;;;;;;;;;;;;;;;4986812;28;19925;-78
2022/04/02 09:57:10;;;;;;;;;;;;;;;;;;4976685;28;20012;-78
2022/04/02 09:59:37;;;;;;;;;;;;;;;;;;4980255;28;19930;-79
2022/04/02 10:02:05;;;;;;;;;;;;;;;;;;4976793;28;19922;-78
2022/04/02 10:04:33;;;;;;;;;;;;;;;;;;4975240;28;19926;-78
2022/04/02 10:07:00;;;;;;;;;;;;;;;;;;4970097;28;20370;-79
2022/04/02 10:09:28;;;;;;;;;;;;;;;;;;4982502;28;19972;-78
2022/04/02 10:11:55;;;;;;;;;;;;;;;;;;4984193;28;20380;-81
2022/04/02 10:14:23;;;;;;;;;;;;;;;;;;4980189;28;19933;-82
2022/04/02 10:16:50;;;;;;;;;;;;;;;;;;4979706;28;20286;-81
2022/04/02 10:19:17;;;;;;;;;;;;;;;;;;4980518;28;19930;-83
2022/04/02 10:21:45;;;;;;;;;;;;;;;;;;4988526;28;19922;-83
2022/04/02 10:24:12;;;;;;;;;;;;;;;;;;4984295;28;19922;-83
2022/04/02 10:26:39;;;;;;;;;;;;;;;;;;4988398;28;19922;-82
2022/04/02 10:29:07;;;;;;;;;;;;;;;;;;4979301;28;19965;-78
2022/04/02 10:31:35;;;;;;;;;;;;;;;;;;4978922;28;19921;-80
2022/04/02 10:34:02;;;;;;;;;;;;;;;;;;4980862;28;19937;-78
2022/04/02 10:36:29;;;;;;;;;;;;;;;;;;4985975;28;19953;-79
2022/04/02 10:38:57;;;;;;;;;;;;;;;;;;4977399;28;19988;-79
2022/04/02 10:41:24;;;;;;;;;;;;;;;;;;4982980;28;20673;-82
2022/04/02 10:43:52;;;;;;;;;;;;;;;;;;4980859;28;19923;-79
2022/04/02 10:46:21;;;;;;;;;;;;;;;;;;4979220;28;19964;-79
2022/04/02 10:48:49;;;;;;;;;;;;;;;;;;4983826;28;21037;-78
2022/04/02 10:51:16;;;;;;;;;;;;;;;;;;4981348;28;20329;-78
2022/04/02 10:53:44;;;;;;;;;;;;;;;;;;4983646;28;19953;-78
2022/04/02 10:56:11;;;;;;;;;;;;;;;;;;4987431;28;19922;-78
2022/04/02 10:58:38;;;;;;;;;;;;;;;;;;4985293;28;20736;-78
2022/04/02 11:01:07;;;;;;;;;;;;;;;;;;4978457;28;19922;-79
2022/04/02 11:03:34;;;;;;;;;;;;;;;;;;4989788;28;20297;-78
2022/04/02 11:06:02;;;;;;;;;;;;;;;;;;4978726;28;20264;-78
2022/04/02 11:08:29;;;;;;;;;;;;;;;;;;4981599;28;20628;-79
2022/04/02 11:10:56;;;;;;;;;;;;;;;;;;4971893;28;19922;-77
2022/04/02 11:13:23;;;;;;;;;;;;;;;;;;4978801;28;19922;-78
2022/04/02 11:15:51;;;;;;;;;;;;;;;;;;4990269;28;19936;-78
2022/04/02 11:18:18;;;;;;;;;;;;;;;;;;4967797;28;19949;-78
2022/04/02 11:20:45;;;;;;;;;;;;;;;;;;4967453;28;19965;-79
2022/04/02 11:23:12;;;;;;;;;;;;;;;;;;4983290;28;19951;-79
2022/04/02 11:25:40;;;;;;;;;;;;;;;;;;4977715;28;19926;-79
2022/04/02 11:28:11;;;;;;;;;;;;;;;;;;4975818;28;20271;-79
2022/04/02 11:30:40;;;;;;;;;;;;;;;;;;4974287;28;19969;-79
2022/04/02 11:33:08;;;;;;;;;;;;;;;;;;4974559;28;19926;-83
2022/04/02 11:35:35;;;;;;;;;;;;;;;;;;4974002;28;19926;-84
2022/04/02 11:38:03;;;;;;;;;;;;;;;;;;4958099;28;20388;-80
2022/04/02 11:40:31;;;;;;;;;;;;;;;;;;4974307;28;19922;-77
2022/04/02 11:42:58;;;;;;;;;;;;;;;;;;4974087;28;19977;-78
2022/04/02 11:45:25;;;;;;;;;;;;;;;;;;4974473;28;19980;-78
2022/04/02 11:47:52;;;;;;;;;;;;;;;;;;4973969;28;19926;-78
2022/04/02 11:50:20;;;;;;;;;;;;;;;;;;4974129;28;19922;-78
2022/04/02 11:52:47;;;;;;;;;;;;;;;;;;4973821;28;20341;-78
2022/04/02 11:55:15;;;;;;;;;;;;;;;;;;4990015;28;20366;-82
2022/04/02 11:57:42;;;;;;;;;;;;;;;;;;4974525;28;19926;-83
2022/04/02 12:00:09;;;;;;;;;;;;;;;;;;4974386;28;20224;-83
2022/04/02 12:02:40;;;;;;;;;;;;;;;;;;4973930;28;19922;-81
2022/04/02 12:05:08;;;;;;;;;;;;;;;;;;4973890;28;19933;-84
2022/04/02 12:07:35;;;;;;;;;;;;;;;;;;4973734;28;19926;-83
2022/04/02 12:10:02;;;;;;;;;;;;;;;;;;4973815;28;20295;-83
2022/04/02 12:12:29;;;;;;;;;;;;;;;;;;4973754;28;19933;-80
2022/04/02 12:14:58;;;;;;;;;;;;;;;;;;4973641;28;19980;-82
2022/04/02 12:17:28;;;;;;;;;;;;;;;;;;4974916;28;19977;-80
2022/04/02 12:19:55;;;;;;;;;;;;;;;;;;4973674;28;20037;-78
2022/04/02 12:22:22;;;;;;;;;;;;;;;;;;4973561;28;19926;-76
2022/04/02 12:24:50;;;;;;;;;;;;;;;;;;4973538;28;19968;-77
2022/04/02 12:27:18;;;;;;;;;;;;;;;;;;4973436;28;20378;-77
2022/04/02 12:29:46;;;;;;;;;;;;;;;;;;4957285;28;20338;-77
2022/04/02 12:32:13;;;;;;;;;;;;;;;;;;4956490;28;19976;-76
2022/04/02 12:34:40;;;;;;;;;;;;;;;;;;4973192;28;19972;-77
2022/04/02 12:37:07;;;;;;;;;;;;;;;;;;4972532;28;19926;-76
2022/04/02 12:39:34;;;;;;;;;;;;;;;;;;4972961;28;19922;-77
2022/04/02 12:42:02;;;;;;;;;;;;;;;;;;4989024;28;20432;-79
2022/04/02 12:44:29;;;;;;;;;;;;;;;;;;4973627;28;19965;-79
2022/04/02 12:46:56;;;;;;;;;;;;;;;;;;4973305;28;20341;-79
2022/04/02 12:49:23;;;;;;;;;;;;;;;;;;4973047;28;19921;-78
2022/04/02 12:51:51;;;;;;;;;;;;;;;;;;4973124;28;19922;-78
2022/04/02 12:54:21;;;;;;;;;;;;;;;;;;4974222;28;19922;-79
2022/04/02 12:56:48;;;;;;;;;;;;;;;;;;4972932;28;19922;-78
2022/04/02 12:59:15;;;;;;;;;;;;;;;;;;4972769;28;19977;-78
2022/04/02 13:01:42;;;;;;;;;;;;;;;;;;4973192;28;19926;-78
2022/04/02 13:04:10;;;;;;;;;;;;;;;;;;4956887;28;19922;-77
2022/04/02 13:06:37;;;;;;;;;;;;;;;;;;4973111;28;20014;-79
2022/04/02 13:09:05;;;;;;;;;;;;;;;;;;4972961;28;19985;-80
2022/04/02 13:11:32;;;;;;;;;;;;;;;;;;4972986;28;19922;-78
2022/04/02 13:13:59;;;;;;;;;;;;;;;;;;4972951;28;19922;-79
2022/04/02 13:16:26;;;;;;;;;;;;;;;;;;4972897;28;19922;-79
2022/04/02 13:21:41;;;;;;;;;;;;;;;;;;4956648;28;19984;-79
2022/04/02 13:24:09;;;;;;;;;;;;;;;;;;4973010;28;19922;-77
2022/04/02 13:26:36;;;;;;;;;;;;;;;;;;4972856;28;19922;-76
2022/04/02 13:29:08;;;;;;;;;;;;;;;;;;4972534;28;20095;-77
2022/04/02 13:31:35;;;;;;;;;;;;;;;;;;4972923;28;19922;-76
2022/04/02 13:34:02;;;;;;;;;;;;;;;;;;4972921;28;19922;-77
2022/04/02 13:36:30;;;;;;;;;;;;;;;;;;4972870;28;19937;-77
2022/04/02 13:38:58;;;;;;;;;;;;;;;;;;4972559;28;19925;-76
2022/04/02 13:41:25;;;;;;;;;;;;;;;;;;4973584;28;19995;-77
2022/04/02 13:43:53;;;;;;;;;;;;;;;;;;4972759;28;19929;-79
2022/04/02 13:46:21;;;;;;;;;;;;;;;;;;4972404;28;20021;-79
2022/04/02 13:48:48;;;;;;;;;;;;;;;;;;4989418;28;19976;-78
2022/04/02 13:51:15;;;;;;;;;;;;;;;;;;4976185;28;20421;-81
2022/04/02 13:53:43;;;;;;;;;;;;;;;;;;4976184;28;19926;-76
2022/04/02 13:56:10;;;;;;;;;;;;;;;;;;4976340;28;19926;-79
2022/04/02 13:58:37;;;;;;;;;;;;;;;;;;4976188;28;19922;-78
2022/04/02 14:01:04;;;;;;;;;;;;;;;;;;4976058;28;19922;-76
2022/04/02 14:03:32;;;;;;;;;;;;;;;;;;4977228;28;20331;-79
2022/04/02 14:05:59;;;;;;;;;;;;;;;;;;4992599;28;19926;-81
2022/04/02 14:08:26;;;;;;;;;;;;;;;;;;4992151;28;19922;-79
2022/04/02 14:10:53;;;;;;;;;;;;;;;;;;4975768;28;20228;-78
2022/04/02 14:13:21;;;;;;;;;;;;;;;;;;4975789;28;19972;-81
2022/04/02 14:15:49;;;;;;;;;;;;;;;;;;4975894;28;19922;-76
2022/04/02 14:18:16;;;;;;;;;;;;;;;;;;4977019;28;20012;-79
2022/04/02 14:20:43;;;;;;;;;;;;;;;;;;4975816;28;20274;-77
2022/04/02 14:23:11;;;;;;;;;;;;;;;;;;4975619;28;19977;-78
2022/04/02 14:25:39;;;;;;;;;;;;;;;;;;4991790;28;19922;-76
2022/04/02 14:28:06;;;;;;;;;;;;;;;;;;4976185;28;20363;-79
2022/04/02 14:30:33;;;;;;;;;;;;;;;;;;4975796;28;19953;-78
2022/04/02 14:33:00;;;;;;;;;;;;;;;;;;4977108;28;20032;-78
2022/04/02 14:35:28;;;;;;;;;;;;;;;;;;4975328;28;20020;-77
2022/04/02 14:37:55;;;;;;;;;;;;;;;;;;4975653;28;19922;-80
2022/04/02 14:40:22;;;;;;;;;;;;;;;;;;4975831;28;19922;-78
2022/04/02 14:42:50;;;;;;;;;;;;;;;;;;4975459;28;19968;-78
2022/04/02 14:45:17;;;;;;;;;;;;;;;;;;4959195;28;19922;-77
2022/04/02 14:47:44;;;;;;;;;;;;;;;;;;4975549;28;19929;-79
2022/04/02 14:50:12;;;;;;;;;;;;;;;;;;4975198;28;19922;-80
2022/04/02 14:52:39;;;;;;;;;;;;;;;;;;4974925;28;19976;-81
2022/04/02 14:55:06;;;;;;;;;;;;;;;;;;4975279;28;19962;-79
2022/04/02 14:57:33;;;;;;;;;;;;;;;;;;4991373;28;19922;-79
2022/04/02 15:00:01;;;;;;;;;;;;;;;;;;4974791;28;19922;-79
2022/04/02 15:02:30;;;;;;;;;;;;;;;;;;4974570;28;20374;-79
2022/04/02 15:04:59;;;;;;;;;;;;;;;;;;4974871;28;19922;-80
2022/04/02 15:07:26;;;;;;;;;;;;;;;;;;4958836;28;20009;-76
2022/04/02 15:09:53;;;;;;;;;;;;;;;;;;4975260;28;20493;-80
2022/04/02 15:12:21;;;;;;;;;;;;;;;;;;4991049;28;19972;-79
2022/04/02 15:14:49;;;;;;;;;;;;;;;;;;4959212;28;19922;-81
2022/04/02 15:17:18;;;;;;;;;;;;;;;;;;4974934;28;19922;-78
2022/04/02 15:19:51;;;;;;;;;;;;;;;;;;4974338;28;19929;-76
2022/04/02 15:22:19;;;;;;;;;;;;;;;;;;4974668;28;20389;-81
2022/04/02 15:24:46;;;;;;;;;;;;;;;;;;4990932;28;19922;-76
2022/04/02 15:27:14;;;;;;;;;;;;;;;;;;4974868;28;19933;-77
2022/04/02 15:29:42;;;;;;;;;;;;;;;;;;4974774;28;20282;-77
2022/04/02 15:32:29;;;;;;;;;;;;;;;;;;4958279;28;19933;-76
2022/04/02 15:34:58;;;;;;;;;;;;;;;;;;4974109;28;20394;-77
2022/04/02 15:37:26;;;;;;;;;;;;;;;;;;4974035;28;19922;-79
2022/04/02 15:39:53;;;;;;;;;;;;;;;;;;4974025;28;19922;-77
2022/04/02 15:42:21;;;;;;;;;;;;;;;;;;4974928;28;19973;-80
2022/04/02 15:44:48;;;;;;;;;;;;;;;;;;4957421;28;20032;-77
2022/04/02 15:47:16;;;;;;;;;;;;;;;;;;4973822;28;20346;-77
2022/04/02 15:49:43;;;;;;;;;;;;;;;;;;4975601;28;19922;-78
2022/04/02 15:52:13;;;;;;;;;;;;;;;;;;4975649;28;19926;-77
2022/04/02 15:54:41;;;;;;;;;;;;;;;;;;4974414;28;19928;-77
2022/04/02 15:57:09;;;;;;;;;;;;;;;;;;4974160;28;20012;-77
2022/04/02 15:59:37;;;;;;;;;;;;;;;;;;4974017;28;20039;-78
2022/04/02 16:02:04;;;;;;;;;;;;;;;;;;4974264;28;19922;-78
2022/04/02 16:04:31;;;;;;;;;;;;;;;;;;4974164;28;20449;-75
2022/04/02 16:06:59;;;;;;;;;;;;;;;;;;4973916;28;20304;-81
2022/04/02 16:09:26;;;;;;;;;;;;;;;;;;4974053;28;19929;-76
2022/04/02 16:11:54;;;;;;;;;;;;;;;;;;4973231;28;19922;-77
2022/04/02 16:14:21;;;;;;;;;;;;;;;;;;4973242;28;19934;-75
2022/04/02 16:16:48;;;;;;;;;;;;;;;;;;4973859;28;19922;-75
2022/04/02 16:19:16;;;;;;;;;;;;;;;;;;4973528;28;19925;-76
2022/04/02 16:21:43;;;;;;;;;;;;;;;;;;4973487;28;19968;-77
2022/04/02 16:24:10;;;;;;;;;;;;;;;;;;4957229;28;20283;-75
2022/04/02 16:26:38;;;;;;;;;;;;;;;;;;4974766;28;20279;-80
2022/04/02 16:29:05;;;;;;;;;;;;;;;;;;4973490;28;19925;-75
2022/04/02 16:31:39;;;;;;;;;;;;;;;;;;4972856;28;20380;-77
2022/04/02 16:34:06;;;;;;;;;;;;;;;;;;4973498;28;19973;-80
2022/04/02 16:36:33;;;;;;;;;;;;;;;;;;4973552;28;19981;-81
2022/04/02 16:39:05;;;;;;;;;;;;;;;;;;4972684;28;19992;-78
2022/04/02 16:41:34;;;;;;;;;;;;;;;;;;4973097;28;20271;-77
2022/04/02 16:44:01;;;;;;;;;;;;;;;;;;4973454;28;19926;-77
2022/04/02 16:46:29;;;;;;;;;;;;;;;;;;4973152;28;20018;-78
2022/04/02 16:48:56;;;;;;;;;;;;;;;;;;4973606;28;20367;-77
2022/04/02 16:51:23;;;;;;;;;;;;;;;;;;4957168;28;19933;-77
2022/04/02 16:53:50;;;;;;;;;;;;;;;;;;4973276;28;19997;-77
2022/04/02 16:56:20;;;;;;;;;;;;;;;;;;4974373;28;19922;-75
2022/04/02 16:58:47;;;;;;;;;;;;;;;;;;4973315;28;20340;-76
2022/04/02 17:01:15;;;;;;;;;;;;;;;;;;4957017;28;19926;-76
2022/04/02 17:03:42;;;;;;;;;;;;;;;;;;4973056;28;19969;-76